Santa Maria, California
Current Conditions -  °F | °C
As of 11:51 AM on Thursday 23 Oct 2014 (Local Time) from KSMX Reporting Station
Few Clouds Few Clouds  
Wind Chill: 78°   Ceiling: Unl
Heat Index: 78°   Visibility: 10mi
Dew Point: 43°   Wind: 5mph
Humidity: 29%   Direction: 280°W
Pressure: 30.02"   Gusts: NA
Location:  34.95°N, 120.43°W
Report Text: KSMX 231851Z 28004KT 10SM FEW250 26/06 A3002 RMK AO2 SLP164 T02560061
Loading
Personal Weather Stations






























Interactive Weather Map
Tropical Storm Tracking
New forecast layout! Learn more

10-Day Weather Forecast

Advertisements
Track Severe Weather on mobile